createdAt,value
2019-03-27T09:58:59.752Z,7.05
2019-03-27T10:01:26.524Z,7.62
2019-03-27T10:03:53.441Z,6.60
2019-03-27T10:06:20.231Z,6.55
2019-03-27T10:08:47.003Z,6.22
2019-03-27T10:11:13.900Z,6.42
2019-03-27T10:13:40.723Z,5.80
2019-03-27T10:25:24.021Z,5.42
2019-03-27T10:27:50.873Z,5.20
2019-03-27T10:30:18.427Z,5.15
2019-03-27T10:32:45.301Z,5.47
2019-03-27T10:35:12.222Z,5.80
2019-03-27T10:37:38.988Z,5.62
2019-03-27T10:40:05.826Z,5.30
2019-03-27T10:42:32.706Z,5.75
2019-03-27T10:44:59.674Z,5.78
2019-03-27T10:47:26.791Z,5.00
2019-03-27T10:49:53.481Z,4.47
2019-03-27T10:52:20.243Z,4.28
2019-03-27T10:54:47.025Z,4.53
2019-03-27T10:57:13.875Z,4.37
2019-03-27T10:59:40.672Z,4.22
2019-03-27T11:02:07.634Z,4.37
2019-03-27T11:04:34.598Z,3.70
2019-03-27T11:07:01.942Z,4.12
2019-03-27T11:09:29.091Z,4.47
2019-03-27T11:11:55.872Z,4.80
2019-03-27T11:14:22.597Z,4.60
2019-03-27T11:16:49.375Z,4.17
2019-03-27T11:19:16.290Z,4.35
2019-03-27T11:21:43.201Z,3.92
2019-03-27T11:24:10.563Z,4.20
2019-03-27T11:26:37.377Z,4.28
2019-03-27T11:29:04.233Z,3.90
2019-03-27T11:31:31.339Z,4.05
2019-03-27T11:33:58.132Z,3.67
2019-03-27T11:36:26.248Z,4.30
2019-03-27T11:38:52.989Z,4.30
2019-03-27T11:41:20.282Z,5.17
2019-03-27T11:43:54.611Z,4.72
2019-03-27T11:46:15.880Z,4.58
2019-03-27T11:48:42.732Z,4.50
2019-03-27T11:51:09.559Z,4.95
2019-03-27T11:53:36.503Z,4.90
2019-03-27T11:56:03.613Z,4.92
2019-03-27T11:58:30.547Z,4.17
2019-03-27T12:00:57.369Z,4.92
2019-03-27T12:03:24.185Z,5.00
2019-03-27T12:05:51.123Z,5.00
2019-03-27T12:08:17.911Z,5.28
2019-03-27T12:10:44.782Z,5.70
2019-03-27T12:13:11.554Z,5.67
2019-03-27T12:15:39.299Z,5.53
2019-03-27T12:18:06.971Z,5.08
2019-03-27T12:20:34.399Z,5.03
2019-03-27T12:23:01.143Z,5.25
2019-03-27T12:25:27.927Z,4.83
2019-03-27T12:27:54.763Z,5.55
2019-03-27T12:30:21.685Z,5.42
2019-03-27T12:32:48.455Z,6.60
2019-03-27T12:35:15.197Z,5.40
2019-03-27T12:37:41.945Z,4.87
2019-03-27T12:40:11.915Z,5.10
2019-03-27T12:42:37.402Z,4.75
2019-03-27T12:45:05.361Z,5.20
2019-03-27T12:47:36.942Z,4.90
2019-03-27T12:50:05.653Z,5.53
2019-03-27T12:52:32.439Z,4.75
2019-03-27T12:54:59.159Z,4.80
2019-03-27T12:57:25.877Z,4.70
2019-03-27T12:59:52.637Z,5.42
2019-03-27T13:02:19.339Z,5.03
2019-03-27T13:04:46.211Z,5.55
2019-03-27T13:07:13.189Z,5.00
2019-03-27T13:09:40.019Z,4.53
2019-03-27T13:12:06.781Z,4.30
2019-03-27T13:14:34.112Z,5.00
2019-03-27T13:17:00.933Z,4.75
2019-03-27T13:19:28.207Z,4.85
2019-03-27T13:21:55.047Z,5.58
2019-03-27T13:24:21.755Z,5.15
2019-03-27T13:26:48.665Z,4.55
2019-03-27T13:29:15.425Z,5.00
2019-03-27T13:31:42.201Z,4.53
2019-03-27T13:34:09.101Z,6.30
2019-03-27T13:36:37.279Z,5.45
2019-03-27T13:39:06.420Z,5.42
2019-03-27T13:41:33.331Z,5.62
2019-03-27T13:44:00.199Z,6.00
2019-03-27T13:46:26.961Z,5.65
2019-03-27T13:48:53.945Z,5.60
2019-03-27T13:51:20.939Z,6.12
2019-03-27T13:53:47.821Z,5.78
2019-03-27T13:56:14.714Z,5.33
2019-03-27T13:58:41.518Z,5.12
2019-03-27T14:01:09.059Z,5.35
2019-03-27T14:03:36.618Z,5.00
2019-03-27T14:06:03.390Z,5.47
2019-03-27T14:08:30.512Z,4.97
2019-03-27T14:10:57.400Z,4.47
2019-03-27T14:13:24.154Z,4.80
2019-03-27T14:15:50.957Z,4.40
2019-03-27T14:18:17.868Z,4.50
2019-03-27T14:20:44.717Z,4.33
2019-03-27T14:23:11.499Z,4.05
2019-03-27T14:25:38.334Z,4.20
2019-03-27T14:28:05.472Z,4.47
2019-03-27T14:30:49.187Z,4.60
2019-03-27T14:33:16.137Z,4.28
2019-03-27T14:35:43.010Z,4.47
2019-03-27T14:38:09.814Z,4.15
2019-03-27T14:40:36.590Z,4.00
2019-03-27T14:43:03.600Z,4.17
2019-03-27T14:45:30.546Z,4.45
2019-03-27T14:47:57.406Z,4.33
2019-03-27T14:50:24.353Z,4.47
2019-03-27T14:52:51.133Z,4.80
2019-03-27T14:55:17.921Z,4.65
2019-03-27T14:57:44.669Z,4.42
2019-03-27T15:00:11.666Z,4.78
2019-03-27T15:02:38.780Z,4.55
2019-03-27T15:05:06.361Z,4.37
2019-03-27T15:07:33.203Z,4.80
2019-03-27T15:10:00.151Z,4.80
2019-03-27T15:12:27.430Z,4.65
2019-03-27T15:14:54.147Z,6.45
2019-03-27T15:17:20.991Z,5.20
2019-03-27T15:19:47.980Z,6.72
2019-03-27T15:22:22.234Z,5.67
2019-03-27T15:24:43.405Z,6.08
2019-03-27T15:27:10.254Z,6.12
2019-03-27T15:29:37.075Z,5.87
2019-03-27T15:32:03.828Z,5.53
2019-03-27T15:34:30.736Z,4.72
2019-03-27T15:36:57.635Z,5.12
2019-03-27T15:39:24.825Z,4.92
2019-03-27T15:41:51.729Z,5.05
2019-03-27T15:44:18.484Z,4.75
2019-03-27T15:46:45.365Z,5.30
2019-03-27T15:49:12.152Z,6.37
2019-03-27T15:51:39.082Z,7.90
2019-03-27T15:54:05.860Z,9.08
2019-03-27T15:56:32.763Z,5.37
2019-03-27T15:58:59.503Z,5.10
2019-03-27T16:01:26.286Z,5.37
2019-03-27T16:03:53.283Z,5.20
2019-03-27T16:06:20.115Z,5.33
2019-03-27T16:08:46.934Z,5.55
2019-03-27T16:11:13.863Z,5.37
2019-03-27T16:13:40.636Z,5.22
2019-03-27T16:16:07.580Z,5.50
2019-03-27T16:18:34.482Z,5.85
2019-03-27T16:21:01.346Z,5.35
2019-03-27T16:23:32.344Z,5.42
2019-03-27T16:25:59.203Z,5.30
2019-03-27T16:28:25.935Z,5.30
2019-03-27T16:30:52.737Z,5.58
2019-03-27T16:33:19.544Z,5.80
2019-03-27T16:35:46.465Z,6.03
2019-03-27T16:38:13.340Z,5.45
2019-03-27T16:40:45.873Z,6.33
2019-03-27T16:43:12.935Z,5.58
2019-03-27T16:45:39.743Z,5.97
2019-03-27T16:48:06.720Z,6.20
2019-03-27T16:50:33.580Z,7.87
2019-03-27T16:53:03.715Z,6.72
2019-03-27T16:55:29.140Z,6.78
2019-03-27T16:57:55.926Z,6.45
2019-03-27T17:00:22.752Z,7.12
2019-03-27T17:02:49.623Z,7.12
2019-03-27T17:05:16.536Z,7.67
2019-03-27T17:07:43.342Z,8.30
2019-03-27T17:10:10.117Z,7.65
2019-03-27T17:12:36.970Z,7.92
2019-03-27T17:15:04.951Z,7.58
2019-03-27T17:17:31.817Z,8.10
2019-03-27T17:20:00.792Z,8.13
2019-03-27T17:22:27.836Z,9.53
2019-03-27T17:24:56.025Z,8.03
2019-03-27T17:27:23.301Z,9.15
2019-03-27T17:29:50.044Z,9.90
2019-03-27T17:32:16.776Z,11.00
2019-03-27T17:34:43.556Z,10.65
2019-03-27T17:37:10.265Z,10.53
2019-03-27T17:39:37.092Z,10.93
2019-03-27T17:42:03.846Z,11.78
2019-03-27T17:44:30.636Z,11.93
2019-03-27T17:46:57.379Z,12.37
2019-03-27T17:49:24.283Z,12.85
2019-03-27T17:51:52.213Z,11.93
2019-03-27T17:54:20.753Z,13.08
2019-03-27T17:56:47.906Z,12.78
2019-03-27T17:59:14.742Z,12.45
2019-03-27T18:01:41.514Z,13.22
2019-03-27T18:04:08.303Z,13.53
2019-03-27T18:06:35.188Z,13.65
2019-03-27T18:09:02.055Z,14.58
2019-03-27T18:11:28.939Z,15.30
2019-03-27T18:13:55.824Z,17.55
2019-03-27T18:16:22.686Z,17.15
2019-03-27T18:18:49.540Z,16.05
2019-03-27T18:21:16.526Z,17.45
2019-03-27T18:23:46.255Z,17.67
2019-03-27T18:26:12.287Z,19.35
2019-03-27T18:28:38.985Z,19.67
2019-03-27T18:31:05.747Z,19.60
2019-03-27T18:33:34.162Z,20.40
2019-03-27T18:36:01.196Z,19.80
2019-03-27T18:38:28.089Z,23.35
2019-03-27T18:40:55.052Z,23.05
2019-03-27T18:43:21.876Z,24.80
2019-03-27T18:45:48.646Z,27.75
2019-03-27T18:48:15.460Z,28.52
2019-03-27T18:50:45.146Z,29.48
2019-03-27T18:53:11.896Z,28.77
2019-03-27T18:55:38.686Z,32.17
2019-03-27T18:58:05.431Z,31.62
2019-03-27T19:00:32.378Z,30.35
2019-03-27T19:02:59.189Z,32.05
2019-03-27T19:05:26.110Z,34.38
2019-03-27T19:07:52.866Z,33.92
2019-03-27T19:10:19.680Z,32.48
2019-03-27T19:12:49.176Z,31.70
2019-03-27T19:15:16.215Z,32.88
2019-03-27T19:17:43.230Z,31.77
2019-03-27T19:20:09.995Z,33.02
2019-03-27T19:22:36.875Z,31.70
2019-03-27T19:25:05.890Z,31.68
2019-03-27T19:27:32.670Z,31.07
2019-03-27T19:29:59.560Z,29.95
2019-03-27T19:32:26.272Z,31.70
2019-03-27T19:34:52.998Z,29.07
2019-03-27T19:37:19.753Z,30.50
2019-03-27T19:39:46.517Z,29.12
2019-03-27T19:42:13.236Z,28.00
2019-03-27T19:44:40.155Z,28.45
2019-03-27T19:47:06.998Z,28.90
2019-03-27T19:49:33.694Z,28.50
2019-03-27T19:52:00.656Z,29.32
2019-03-27T19:54:27.737Z,31.23
2019-03-27T19:56:54.630Z,29.98
2019-03-27T19:59:21.403Z,30.37
2019-03-27T20:01:48.189Z,30.80
2019-03-27T20:04:14.932Z,30.62
2019-03-27T20:06:41.763Z,31.62
2019-03-27T20:09:08.658Z,33.80
2019-03-27T20:11:35.479Z,32.83
2019-03-27T20:14:02.391Z,33.25
2019-03-27T20:16:29.363Z,33.20
2019-03-27T20:18:56.245Z,35.58
2019-03-27T20:21:23.062Z,38.23
2019-03-27T20:23:49.801Z,34.05
2019-03-27T20:26:16.933Z,34.50
2019-03-27T20:28:43.671Z,34.80
2019-03-27T20:31:10.614Z,34.53
2019-03-27T20:33:38.309Z,35.25
2019-03-27T20:36:05.280Z,33.83
2019-03-27T20:38:32.014Z,34.78
2019-03-27T20:40:58.763Z,34.53
2019-03-27T20:43:25.484Z,35.00
2019-03-27T20:45:52.198Z,33.53
2019-03-27T20:48:21.320Z,34.25
2019-03-27T20:50:48.047Z,33.98
2019-03-27T20:53:14.803Z,34.60
2019-03-27T20:55:41.624Z,34.18
2019-03-27T20:58:08.420Z,34.88
2019-03-27T21:00:35.320Z,33.42
2019-03-27T21:03:02.468Z,32.88
2019-03-27T21:05:29.302Z,32.55
2019-03-27T21:07:56.106Z,32.17
2019-03-27T21:10:23.130Z,31.82
2019-03-27T21:12:50.032Z,31.87
2019-03-27T21:15:16.919Z,31.90
2019-03-27T21:17:43.907Z,30.50
2019-03-27T21:20:10.768Z,32.80
2019-03-27T21:22:37.626Z,29.57
2019-03-27T21:25:09.020Z,31.57
2019-03-27T21:30:02.269Z,31.33
2019-03-27T21:32:29.018Z,32.78
2019-03-27T21:34:55.832Z,32.38
2019-03-27T21:37:22.681Z,30.10
2019-03-27T21:39:49.447Z,31.80
2019-03-27T21:42:16.274Z,32.55
2019-03-27T21:44:43.166Z,33.18
2019-03-27T21:47:09.892Z,32.70
2019-03-27T21:49:36.805Z,34.90
2019-03-27T21:52:03.560Z,34.40
2019-03-27T21:54:30.295Z,35.58
2019-03-27T21:56:57.189Z,36.17
2019-03-27T21:59:23.931Z,38.48
2019-03-27T22:01:50.666Z,36.90
2019-03-27T22:04:17.490Z,37.63
2019-03-27T22:06:44.205Z,39.65
2019-03-27T22:09:11.082Z,39.00
2019-03-27T22:11:38.270Z,37.60
2019-03-27T22:14:05.082Z,40.85
2019-03-27T22:16:32.038Z,40.63
2019-03-27T22:18:59.195Z,40.43
2019-03-27T22:21:26.223Z,41.90
2019-03-27T22:23:53.018Z,41.20
2019-03-27T22:26:19.829Z,41.73
2019-03-27T22:28:46.586Z,42.78
2019-03-27T22:31:13.380Z,39.05
2019-03-27T22:33:41.385Z,41.60
2019-03-27T22:36:08.447Z,37.50
2019-03-27T22:38:35.229Z,41.55
2019-03-27T22:41:01.995Z,37.55
2019-03-27T22:43:28.913Z,36.73
2019-03-27T22:45:55.698Z,36.90
2019-03-27T22:48:22.483Z,36.35
2019-03-27T22:50:49.261Z,37.73
2019-03-27T22:53:16.207Z,36.85
2019-03-27T22:55:49.507Z,39.30
2019-03-27T22:58:13.143Z,42.65
2019-03-27T23:00:45.045Z,43.70
2019-03-27T23:03:18.364Z,46.88
2019-03-27T23:05:42.120Z,41.35
2019-03-27T23:08:09.557Z,41.73
2019-03-27T23:10:36.851Z,43.35
2019-03-27T23:13:03.774Z,43.35
2019-03-27T23:15:30.559Z,42.43
2019-03-27T23:17:57.384Z,39.20
2019-03-27T23:20:24.233Z,38.88
2019-03-27T23:22:51.080Z,40.83
2019-03-27T23:25:17.901Z,39.25
2019-03-27T23:27:44.704Z,38.73
2019-03-27T23:30:11.598Z,37.00
2019-03-27T23:32:38.470Z,36.98
2019-03-27T23:35:11.414Z,37.42
2019-03-27T23:37:38.181Z,38.00
2019-03-27T23:40:05.502Z,36.38
2019-03-27T23:42:32.508Z,39.55
2019-03-27T23:44:59.284Z,41.37
2019-03-27T23:47:26.070Z,39.60
2019-03-27T23:49:52.891Z,38.23
2019-03-27T23:52:19.901Z,39.27
2019-03-27T23:54:46.714Z,44.00
2019-03-27T23:57:13.654Z,40.98
2019-03-27T23:59:40.463Z,38.42
